PWSweather.com
Personal Weather Stations
Station Observations
NYERIN
South Erin, Erin, NY 14838-9545

South ErinErin, NY 14838-9545

Lat: 42.150605, Lon: -76.654038

Elevation: 1663

Station Type: Davis VP Pro II

http://southerin-ny.org/wx.php

Latest ConditionsUpdated 9:52:00 AM EST Wednesday, Nov 26, 2014
Currently Today's Max Today's Min Today's Average
Temperature 30.3°F-0.9°C 32.7°F0.4°C 29.8°F-1.2°C 30.3°F-0.9°C
Dew Point 24.0°F-4.4°C 30.2°F-1.0°C 23.8°F-4.6°C 25.8°F-3.4°C
Winds 2.1 mph NE3.4 kmh NE 4.8 mph NE7.7 kmh NE - 1.9 mph 3.1 kmh
Wind Gusts 4.0 mph6.4 kmh 7.0 mph11.3 kmh - -
Humidity 77% 96% 74% 83%
Pressure 30.13 in1020.3 mb 30.22 in1023.4 mb 30.13 in1020.3 mb -
Hour Temp Dew Point Humidity Winds Wind Gusts Pressure Precip Precip Rate Daily Precip Total
09:52 AM 30.3°F-0.9°C 24.0°F-4.4°C 77% 2.1 mph NE3.4 kmh NE 4.0 mph6.4 kmh 30.13 in1020.3 mb 0.00 in0.0 mm 0.00 in/hr0.0 mm/hr 0.00 in0.0 mm
09:42 AM 30.3°F-0.9°C 24.0°F-4.4°C 77% 3.1 mph NE5.0 kmh NE 5.0 mph8.0 kmh 30.14 in1020.7 mb 0.00 in0.0 mm 0.00 in/hr0.0 mm/hr 0.00 in0.0 mm
09:32 AM 30.3°F-0.9°C 24.3°F-4.3°C 78% 2.3 mph NE3.7 kmh NE 4.0 mph6.4 kmh 30.14 in1020.7 mb 0.00 in0.0 mm 0.00 in/hr0.0 mm/hr 0.00 in0.0 mm
09:22 AM 30.1°F-1.1°C 23.8°F-4.6°C 77% 2.0 mph NE3.2 kmh NE 3.0 mph4.8 kmh 30.14 in1020.7 mb 0.00 in0.0 mm 0.00 in/hr0.0 mm/hr 0.00 in0.0 mm
09:12 AM 30.1°F-1.1°C 24.1°F-4.4°C 78% 4.8 mph NE7.7 kmh NE 7.0 mph11.3 kmh 30.15 in1021.0 mb 0.00 in0.0 mm 0.00 in/hr0.0 mm/hr 0.00 in0.0 mm
09:02 AM 30.1°F-1.1°C 24.4°F-4.2°C 79% 0.7 mph NNE1.1 kmh NNE 2.0 mph3.2 kmh 30.17 in1021.7 mb 0.00 in0.0 mm 0.00 in/hr0.0 mm/hr 0.00 in0.0 mm
08:52 AM 30.1°F-1.1°C 24.4°F-4.2°C 79% 1.9 mph NNE3.1 kmh NNE 2.0 mph3.2 kmh 30.17 in1021.7 mb 0.00 in0.0 mm 0.00 in/hr0.0 mm/hr 0.00 in0.0 mm
08:42 AM 30.0°F-1.1°C 24.6°F-4.1°C 80% 0.5 mph NNE0.8 kmh NNE 3.0 mph4.8 kmh 30.18 in1022.0 mb 0.00 in0.0 mm 0.00 in/hr0.0 mm/hr 0.00 in0.0 mm
08:32 AM 30.0°F-1.1°C 24.6°F-4.1°C 80% 0.2 mph NNE0.3 kmh NNE 1.0 mph1.6 kmh 30.16 in1021.3 mb 0.00 in0.0 mm 0.00 in/hr0.0 mm/hr 0.00 in0.0 mm
08:22 AM 30.0°F-1.1°C 24.6°F-4.1°C 80% 3.3 mph N5.3 kmh N 7.0 mph11.3 kmh 30.15 in1021.0 mb 0.00 in0.0 mm 0.00 in/hr0.0 mm/hr 0.00 in0.0 mm
08:12 AM 30.0°F-1.1°C 24.6°F-4.1°C 80% 1.3 mph NE2.1 kmh NE 5.0 mph8.0 kmh 30.17 in1021.7 mb 0.00 in0.0 mm 0.00 in/hr0.0 mm/hr 0.00 in0.0 mm
08:02 AM 29.8°F-1.2°C 24.4°F-4.2°C 80% 2.6 mph NE4.2 kmh NE 3.0 mph4.8 kmh 30.17 in1021.7 mb 0.00 in0.0 mm 0.00 in/hr0.0 mm/hr 0.00 in0.0 mm
07:52 AM 29.8°F-1.2°C 24.4°F-4.2°C 80% 2.3 mph ENE3.7 kmh ENE 3.0 mph4.8 kmh 30.16 in1021.3 mb 0.00 in0.0 mm 0.00 in/hr0.0 mm/hr 0.00 in0.0 mm
07:42 AM 29.8°F-1.2°C 24.1°F-4.4°C 79% 2.2 mph NE3.5 kmh NE 3.0 mph4.8 kmh 30.17 in1021.7 mb 0.00 in0.0 mm 0.00 in/hr0.0 mm/hr 0.00 in0.0 mm
07:32 AM 29.8°F-1.2°C 24.1°F-4.4°C 79% 1.1 mph NE1.8 kmh NE 3.0 mph4.8 kmh 30.17 in1021.7 mb 0.00 in0.0 mm 0.00 in/hr0.0 mm/hr 0.00 in0.0 mm
07:22 AM 29.8°F-1.2°C 24.1°F-4.4°C 79% 1.5 mph ENE2.4 kmh ENE 3.0 mph4.8 kmh 30.17 in1021.7 mb 0.00 in0.0 mm 0.00 in/hr0.0 mm/hr 0.00 in0.0 mm
07:12 AM 29.8°F-1.2°C 24.1°F-4.4°C 79% 0.8 mph NE1.3 kmh NE 3.0 mph4.8 kmh 30.17 in1021.7 mb 0.00 in0.0 mm 0.00 in/hr0.0 mm/hr 0.00 in0.0 mm
07:02 AM 29.9°F-1.2°C 24.2°F-4.3°C 79% 2.8 mph NNE4.5 kmh NNE 4.0 mph6.4 kmh 30.17 in1021.7 mb 0.00 in0.0 mm 0.00 in/hr0.0 mm/hr 0.00 in0.0 mm
06:52 AM 30.0°F-1.1°C 24.6°F-4.1°C 80% 1.3 mph NNE2.1 kmh NNE 4.0 mph6.4 kmh 30.18 in1022.0 mb 0.00 in0.0 mm 0.00 in/hr0.0 mm/hr 0.00 in0.0 mm
06:42 AM 30.0°F-1.1°C 24.3°F-4.3°C 79% 1.5 mph NE2.4 kmh NE 3.0 mph4.8 kmh 30.17 in1021.7 mb 0.00 in0.0 mm 0.00 in/hr0.0 mm/hr 0.00 in0.0 mm
06:32 AM 30.0°F-1.1°C 24.6°F-4.1°C 80% 3.7 mph N6.0 kmh N 6.0 mph9.7 kmh 30.18 in1022.0 mb 0.00 in0.0 mm 0.00 in/hr0.0 mm/hr 0.00 in0.0 mm
06:22 AM 30.0°F-1.1°C 24.6°F-4.1°C 80% 1.3 mph NNE2.1 kmh NNE 5.0 mph8.0 kmh 30.19 in1022.4 mb 0.00 in0.0 mm 0.00 in/hr0.0 mm/hr 0.00 in0.0 mm
06:12 AM 29.8°F-1.2°C 24.4°F-4.2°C 80% 2.5 mph NNE4.0 kmh NNE 4.0 mph6.4 kmh 30.20 in1022.7 mb 0.00 in0.0 mm 0.00 in/hr0.0 mm/hr 0.00 in0.0 mm
06:02 AM 29.8°F-1.2°C 24.4°F-4.2°C 80% 2.8 mph NNE4.5 kmh NNE 4.0 mph6.4 kmh 30.19 in1022.4 mb 0.00 in0.0 mm 0.00 in/hr0.0 mm/hr 0.00 in0.0 mm
05:52 AM 29.8°F-1.2°C 24.7°F-4.1°C 81% 1.6 mph N2.6 kmh N 3.0 mph4.8 kmh 30.19 in1022.4 mb 0.00 in0.0 mm 0.00 in/hr0.0 mm/hr 0.00 in0.0 mm
05:42 AM 29.8°F-1.2°C 24.7°F-4.1°C 81% 3.1 mph N5.0 kmh N 6.0 mph9.7 kmh 30.18 in1022.0 mb 0.00 in0.0 mm 0.00 in/hr0.0 mm/hr 0.00 in0.0 mm
05:32 AM 29.8°F-1.2°C 24.7°F-4.1°C 81% 3.3 mph NE5.3 kmh NE 5.0 mph8.0 kmh 30.16 in1021.3 mb 0.00 in0.0 mm 0.00 in/hr0.0 mm/hr 0.00 in0.0 mm
05:22 AM 29.8°F-1.2°C 24.7°F-4.1°C 81% 2.4 mph N3.9 kmh N 6.0 mph9.7 kmh 30.18 in1022.0 mb 0.00 in0.0 mm 0.00 in/hr0.0 mm/hr 0.00 in0.0 mm
05:12 AM 29.8°F-1.2°C 25.0°F-3.9°C 82% 1.9 mph NE3.1 kmh NE 3.0 mph4.8 kmh 30.17 in1021.7 mb 0.00 in0.0 mm 0.00 in/hr0.0 mm/hr 0.00 in0.0 mm
05:02 AM 29.8°F-1.2°C 25.0°F-3.9°C 82% 3.3 mph 5.3 kmh 6.0 mph9.7 kmh 30.18 in1022.0 mb 0.00 in0.0 mm 0.00 in/hr0.0 mm/hr 0.00 in0.0 mm
04:52 AM 29.8°F-1.2°C 25.3°F-3.7°C 83% 3.9 mph N6.3 kmh N 5.0 mph8.0 kmh 30.19 in1022.4 mb 0.00 in0.0 mm 0.00 in/hr0.0 mm/hr 0.00 in0.0 mm
04:42 AM 29.8°F-1.2°C 25.6°F-3.6°C 84% 2.5 mph NNE4.0 kmh NNE 6.0 mph9.7 kmh 30.19 in1022.4 mb 0.00 in0.0 mm 0.00 in/hr0.0 mm/hr 0.00 in0.0 mm
04:32 AM 30.0°F-1.1°C 26.0°F-3.3°C 85% 3.4 mph NNE5.5 kmh NNE 6.0 mph9.7 kmh 30.20 in1022.7 mb 0.00 in0.0 mm 0.00 in/hr0.0 mm/hr 0.00 in0.0 mm
04:22 AM 30.0°F-1.1°C 26.0°F-3.3°C 85% 0.7 mph NNE1.1 kmh NNE 4.0 mph6.4 kmh 30.22 in1023.4 mb 0.00 in0.0 mm 0.00 in/hr0.0 mm/hr 0.00 in0.0 mm
04:12 AM 29.9°F-1.2°C 25.9°F-3.4°C 85% Calm Calm -- 30.22 in1023.4 mb 0.00 in0.0 mm 0.00 in/hr0.0 mm/hr 0.00 in0.0 mm
04:02 AM 29.8°F-1.2°C 26.1°F-3.3°C 86% 0.9 mph NNE1.4 kmh NNE -- 30.22 in1023.4 mb 0.00 in0.0 mm 0.00 in/hr0.0 mm/hr 0.00 in0.0 mm
03:52 AM 29.8°F-1.2°C 26.4°F-3.1°C 87% 1.3 mph NE2.1 kmh NE 3.0 mph4.8 kmh 30.20 in1022.7 mb 0.00 in0.0 mm 0.00 in/hr0.0 mm/hr 0.00 in0.0 mm
03:42 AM 29.8°F-1.2°C 26.7°F-2.9°C 88% 2.9 mph NE4.7 kmh NE 4.0 mph6.4 kmh 30.20 in1022.7 mb 0.00 in0.0 mm 0.00 in/hr0.0 mm/hr 0.00 in0.0 mm
03:32 AM 30.0°F-1.1°C 27.2°F-2.7°C 89% 2.4 mph NE3.9 kmh NE 3.0 mph4.8 kmh 30.20 in1022.7 mb 0.00 in0.0 mm 0.00 in/hr0.0 mm/hr 0.00 in0.0 mm
03:22 AM 30.0°F-1.1°C 27.4°F-2.6°C 90% 1.7 mph NNE2.7 kmh NNE 4.0 mph6.4 kmh 30.21 in1023.0 mb 0.00 in0.0 mm 0.00 in/hr0.0 mm/hr 0.00 in0.0 mm
03:12 AM 30.0°F-1.1°C 27.4°F-2.6°C 90% 0.5 mph NE0.8 kmh NE 4.0 mph6.4 kmh 30.21 in1023.0 mb 0.00 in0.0 mm 0.00 in/hr0.0 mm/hr 0.00 in0.0 mm
03:02 AM 30.1°F-1.1°C 27.8°F-2.3°C 91% 3.0 mph NE4.8 kmh NE 5.0 mph8.0 kmh 30.20 in1022.7 mb 0.00 in0.0 mm 0.00 in/hr0.0 mm/hr 0.00 in0.0 mm
02:52 AM 30.1°F-1.1°C 28.1°F-2.2°C 92% 2.3 mph NE3.7 kmh NE 3.0 mph4.8 kmh 30.19 in1022.4 mb 0.00 in0.0 mm 0.00 in/hr0.0 mm/hr 0.00 in0.0 mm
02:42 AM 30.3°F-0.9°C 28.5°F-1.9°C 93% 3.4 mph NNE5.5 kmh NNE 5.0 mph8.0 kmh 30.20 in1022.7 mb 0.00 in0.0 mm 0.00 in/hr0.0 mm/hr 0.00 in0.0 mm
02:32 AM 30.6°F-0.8°C 29.3°F-1.5°C 95% 1.8 mph N2.9 kmh N 3.0 mph4.8 kmh 30.21 in1023.0 mb 0.00 in0.0 mm 0.00 in/hr0.0 mm/hr 0.00 in0.0 mm
02:22 AM 30.7°F-0.7°C 29.7°F-1.3°C 96% 1.6 mph NE2.6 kmh NE 2.0 mph3.2 kmh 30.21 in1023.0 mb 0.00 in0.0 mm 0.00 in/hr0.0 mm/hr 0.00 in0.0 mm
02:12 AM 31.0°F-0.6°C 30.0°F-1.1°C 96% 1.0 mph NE1.6 kmh NE 3.0 mph4.8 kmh 30.20 in1022.7 mb 0.00 in0.0 mm 0.00 in/hr0.0 mm/hr 0.00 in0.0 mm
02:02 AM 31.2°F-0.4°C 30.2°F-1.0°C 96% 0.1 mph N0.2 kmh N -- 30.20 in1022.7 mb 0.00 in0.0 mm 0.00 in/hr0.0 mm/hr 0.00 in0.0 mm
01:52 AM 31.0°F-0.6°C 30.0°F-1.1°C 96% 0.3 mph N0.5 kmh N 2.0 mph3.2 kmh 30.21 in1023.0 mb 0.00 in0.0 mm 0.00 in/hr0.0 mm/hr 0.00 in0.0 mm
01:42 AM 31.0°F-0.6°C 29.7°F-1.3°C 95% 1.6 mph N2.6 kmh N 2.0 mph3.2 kmh 30.20 in1022.7 mb 0.00 in0.0 mm 0.00 in/hr0.0 mm/hr 0.00 in0.0 mm
01:32 AM 31.0°F-0.6°C 29.5°F-1.4°C 94% 2.4 mph N3.9 kmh N 6.0 mph9.7 kmh 30.19 in1022.4 mb 0.00 in0.0 mm 0.00 in/hr0.0 mm/hr 0.00 in0.0 mm
01:22 AM 31.0°F-0.6°C 29.2°F-1.6°C 93% 0.5 mph NE0.8 kmh NE 1.0 mph1.6 kmh 30.20 in1022.7 mb 0.00 in0.0 mm 0.00 in/hr0.0 mm/hr 0.00 in0.0 mm
01:12 AM 31.0°F-0.6°C 28.1°F-2.2°C 89% Calm Calm -- 30.19 in1022.4 mb 0.00 in0.0 mm 0.00 in/hr0.0 mm/hr 0.00 in0.0 mm
01:02 AM 30.7°F-0.7°C 26.1°F-3.3°C 83% 3.2 mph NE5.1 kmh NE 4.0 mph6.4 kmh 30.16 in1021.3 mb 0.00 in0.0 mm 0.00 in/hr0.0 mm/hr 0.00 in0.0 mm
12:52 AM 30.9°F-0.6°C 25.2°F-3.8°C 79% 0.5 mph NNW0.8 kmh NNW 2.0 mph3.2 kmh 30.15 in1021.0 mb 0.00 in0.0 mm 0.00 in/hr0.0 mm/hr 0.00 in0.0 mm
12:42 AM 31.2°F-0.4°C 25.1°F-3.8°C 78% 0.1 mph NNW0.2 kmh NNW -- 30.16 in1021.3 mb 0.00 in0.0 mm 0.00 in/hr0.0 mm/hr 0.00 in0.0 mm
12:32 AM 31.8°F-0.1°C 24.8°F-4.0°C 75% 2.4 mph NNW3.9 kmh NNW 3.0 mph4.8 kmh 30.17 in1021.7 mb 0.00 in0.0 mm 0.00 in/hr0.0 mm/hr 0.00 in0.0 mm
12:22 AM 32.1°F0.1°C 25.1°F-3.8°C 75% 1.9 mph NNW3.1 kmh NNW 3.0 mph4.8 kmh 30.18 in1022.0 mb 0.00 in0.0 mm 0.00 in/hr0.0 mm/hr 0.00 in0.0 mm
12:12 AM 32.2°F0.1°C 25.2°F-3.8°C 75% 1.5 mph NNW2.4 kmh NNW 1.0 mph1.6 kmh 30.18 in1022.0 mb 0.00 in0.0 mm 0.00 in/hr0.0 mm/hr 0.00 in0.0 mm
12:02 AM 32.7°F0.4°C 25.3°F-3.7°C 74% 2.7 mph NNW4.3 kmh NNW 5.0 mph8.0 kmh 30.17 in1021.7 mb 0.00 in0.0 mm 0.00 in/hr0.0 mm/hr 0.00 in0.0 mm